Airport View

Enter AWOS ICAO identifier for current METAR.

ex. KFNL

KLWM 080554Z AUTO 00000KT 10SM OVC110 19/17 A3018 RMK AO2 SLP218 T01940167 10228 20178 50001

8 Aug 2020 06:16

Frequency: 126.75

Phone: 978-687-8017

Other Area AWOS: KBVY - KBED - KASH - KMHT

TAF KBED 080529Z 0806/0906 00000KT P6SM BKN080 FM081200 00000KT P6SM SCT080 FM081500 00000KT P6SM SCT045 FM081900 12004KT P6SM BKN050 FM090100 18004KT P6SM FEW080